Flight Track Log - Related Links

Times and Time Zones

All times are in EDT time to prevent confusion due to time zone crossing. See the UAL3746 flight status page for this flight to view local times or setup timezone preferences in your user account.

Time Position Orientation Groundspeed Altitude Reporting Facility
EDT Latitude Longitude Course Direction KTS MPH feet Rate Location/Type
Tue 05:34:13 PM 42.8833 -71.4500 216° Southwest 199 229 2,200  Level KA90
Tue 05:35:14 PM 42.8361 -71.4972 216° Southwest 219 252 4,400 2,727 Climbing Boston Center
Tue 05:36:00 PM 42.9453 -71.8578 279° West  Level FlightAware Approximate
Tue 05:36:14 PM 42.8911 -71.5672 317° Northwest 195 224 7,700  Level Boston Center
Tue 05:37:00 PM 42.9500 -72.0003 270° West  Level FlightAware Approximate
Tue 05:37:14 PM 42.9497 -71.6317 321° Northwest 232 267 10,000  Level Boston Center
Tue 05:38:00 PM 42.9501 -72.1432 270° West  Level FlightAware Approximate
Tue 05:38:14 PM 43.0044 -71.7133 313° West 284 327 13,000  Level Boston Center
Tue 05:39:14 PM 43.0136 -71.8239 277° West 277 319 15,400 2,400 Climbing Boston Center
Tue 05:40:14 PM 43.0183 -71.9431 273° West 306 352 17,800 2,150 Climbing Boston Center
Tue 05:41:14 PM 43.0250 -72.0653 274° West 326 375 19,700 1,850 Climbing Boston Center
Tue 05:42:14 PM 43.0317 -72.1958 274° West 333 383 21,500 1,800 Climbing Boston Center
Tue 05:43:14 PM 43.0464 -72.3094 280° West 338 389 23,300 1,800 Climbing Boston Center
Tue 05:44:14 PM 43.0486 -72.4428 271° West 344 396 25,100 1,600 Climbing Boston Center
Tue 05:45:14 PM 43.0567 -72.5794 275° West 356 410 26,500 1,450 Climbing Boston Center
Tue 05:46:14 PM 43.0567 -72.7214 270° West 367 422 28,000 750 Climbing Boston Center
Tue 05:47:14 PM 43.0622 -72.8750 273° West 388 447 28,000  Level Boston Center
Tue 05:48:26 PM 43.0739 -73.0597 275° West 419 482 28,000 182 Level Boston Center
Tue 05:49:26 PM 43.0831 -73.2672 274° West 450 518 28,400 1,150 Climbing Boston Center
Tue 05:50:26 PM 43.0839 -73.4378 270° West 457 526 30,300 1,700 Climbing Boston Center
Tue 05:51:26 PM 43.0906 -73.5972 273° West 451 519 31,800 1,550 Climbing Boston Center
Tue 05:52:26 PM 43.0972 -73.7539 273° West 432 497 33,400 1,200 Climbing Boston Center
Tue 05:53:26 PM 43.1017 -73.9131 272° West 422 486 34,200 900 Climbing Boston Center
Tue 05:54:26 PM 43.1078 -74.0697 273° West 422 486 35,200 850 Climbing Boston Center
Tue 05:55:26 PM 43.1139 -74.2261 273° West 422 486 35,900 400 Climbing Boston Center
Tue 05:56:26 PM 43.1175 -74.3856 272° West 422 486 36,000 50 Climbing Boston Center
Tue 05:57:26 PM 43.1247 -74.5594 273° West 434 499 36,000  Level Boston Center
Tue 05:58:26 PM 43.1297 -74.7331 272° West 451 519 36,000  Level Boston Center
Tue 05:59:26 PM 43.1322 -74.9069 271° West 464 534 36,000  Level Boston Center
Tue 06:00:26 PM 43.1375 -75.0494 273° West 464 534 36,000  Level Boston Center
Tue 06:01:26 PM 43.1408 -75.2631 271° West 464 534 36,000  Level Boston Center
Tue 06:02:38 PM 43.1453 -75.4169 272° West 464 534 36,000  Level Boston Center
Tue 06:03:38 PM 43.1500 -75.6250 272° West 459 528 36,000  Level Boston Center
Tue 06:04:38 PM 43.1533 -75.7986 272° West 459 528 36,000  Level Boston Center
Tue 06:05:38 PM 43.1586 -75.9669 273° West 459 528 36,000  Level Boston Center
Tue 06:07:10 PM 43.1608 -76.2536 271° West 459 528 36,000  Level Cleveland Center
Tue 06:08:10 PM 43.1608 -76.4275 270° West 459 528 36,000  Level Cleveland Center
Tue 06:09:10 PM 43.1606 -76.5983 270° West 459 528 36,000  Level Cleveland Center
Tue 06:10:10 PM 43.1597 -76.7522 270° West 459 528 36,000  Level Cleveland Center
Tue 06:11:10 PM 43.1589 -76.9231 270° West 459 528 36,000  Level Cleveland Center
Tue 06:12:10 PM 43.1581 -77.0967 270° West 459 528 36,000  Level Cleveland Center
Tue 06:13:10 PM 43.1567 -77.2675 269° West 459 528 36,000  Level Cleveland Center
Tue 06:14:10 PM 43.1572 -77.4356 270° West 459 528 36,000  Level Cleveland Center
Tue 06:15:10 PM 43.1556 -77.6092 269° West 459 528 36,000  Level Cleveland Center
Tue 06:16:10 PM 43.1514 -77.7744 268° West 459 528 36,000  Level Cleveland Center
Tue 06:17:10 PM 43.1514 -77.9453 270° West 454 522 36,000  Level Cleveland Center
Tue 06:18:10 PM 43.1467 -78.1161 268° West 454 522 36,000  Level Cleveland Center
Tue 06:19:10 PM 43.1439 -78.2842 269° West 454 522 36,000  Level Cleveland Center
Tue 06:20:10 PM 43.1408 -78.4522 269° West 449 517 36,000  Level Cleveland Center
Tue 06:21:10 PM 43.1378 -78.6400 269° West 454 522 36,000  Level Cleveland Center
Tue 06:22:10 PM 43.1322 -78.8053 267° West 449 517 36,000  Level Cleveland Center
Tue 06:23:10 PM 43.1264 -78.9733 267° West 449 517 36,000  Level Cleveland Center
Tue 06:24:01 PM 43.1167 -79.1000 264° West 440 506 36,000  Level Toronto Center
Tue 06:25:01 PM 43.1000 -79.2667 262° West 440 506 36,000  Level Toronto Center
Tue 06:26:01 PM 43.1000 -79.4333 270° West 440 506 36,000  Level Toronto Center
Tue 06:27:01 PM 43.1000 -79.5833 270° West 440 506 36,000  Level Toronto Center
Tue 06:28:01 PM 43.0833 -79.7667 263° West 440 506 36,000  Level Toronto Center
Tue 06:29:01 PM 43.0833 -79.9333 270° West 440 506 36,000  Level Toronto Center
Tue 06:30:01 PM 43.0833 -80.1167 270° West 440 506 36,000  Level Toronto Center
Tue 06:31:01 PM 43.0667 -80.2667 261° West 440 506 36,000  Level Toronto Center
Tue 06:32:01 PM 43.0667 -80.4333 270° West 440 506 36,000  Level Toronto Center
Tue 06:33:01 PM 43.0500 -80.5833 261° West 440 506 36,000  Level Toronto Center
Tue 06:34:01 PM 43.0500 -80.7667 270° West 440 506 36,000  Level Toronto Center
Tue 06:35:01 PM 43.0333 -80.9333 262° West 440 506 36,000  Level Toronto Center
Tue 06:36:01 PM 43.0167 -81.1167 263° West 440 506 36,000  Level Toronto Center
Tue 06:37:01 PM 43.0167 -81.2667 270° West 440 506 36,000  Level Toronto Center
Tue 06:38:01 PM 43.0167 -81.4333 270° West 440 506 36,000  Level Toronto Center
Tue 06:39:01 PM 43.0167 -81.6167 270° West 450 518 36,000  Level Toronto Center
Tue 06:40:01 PM 43.0167 -81.7833 270° West 440 506 36,000  Level Toronto Center
Tue 06:41:01 PM 43.0000 -81.9333 261° West 440 506 36,000  Level Toronto Center
Tue 06:42:01 PM 43.0000 -82.1167 270° West 440 506 36,000  Level Toronto Center
Tue 06:43:01 PM 43.0000 -82.2833 270° West 440 506 36,000  Level Toronto Center
Tue 06:44:01 PM 43.0000 -82.4333 270° West 440 506 36,000  Level Toronto Center
Tue 06:45:01 PM 43.0000 -82.6167 270° West 440 506 36,000 -74 Level Toronto Center
Tue 06:45:22 PM 43.0019 -82.6669 273° West 443 510 35,900 -1,111 Descending Cleveland Center
Tue 06:46:22 PM 42.9969 -82.8286 268° West 438 504 34,500 -950 Descending Cleveland Center
Tue 06:47:22 PM 42.9936 -82.9875 268° West 432 497 34,000 -250 Descending Cleveland Center
Tue 06:48:22 PM 42.9883 -83.1378 267° West 416 479 34,000 -550 Level Cleveland Center
Tue 06:49:22 PM 42.9828 -83.2936 267° West 410 472 32,900 -1,000 Descending Cleveland Center
Tue 06:50:22 PM 42.9789 -83.4522 268° West 410 472 32,000 -450 Descending Cleveland Center
Tue 06:51:22 PM 42.9728 -83.6081 267° West 415 478 32,000  Level Cleveland Center
Tue 06:52:22 PM 42.9644 -83.7639 266° West 415 478 32,000  Level Cleveland Center
Tue 06:53:22 PM 42.9497 -83.9219 263° West 420 483 32,000  Level Cleveland Center
Tue 06:54:22 PM 42.9344 -84.0800 263° West 420 483 32,000  Level Cleveland Center
Tue 06:55:22 PM 42.9192 -84.2408 263° West 426 490 32,000  Level Cleveland Center
Tue 06:56:22 PM 42.9014 -84.4014 261° West 426 490 32,000  Level Cleveland Center
Tue 06:57:36 PM 42.8831 -84.5961 263° West 435 501 32,000  Level Chicago Center
Tue 06:58:38 PM 42.8661 -84.7603 262° West 438 504 32,000  Level Chicago Center
Tue 06:59:40 PM 42.8450 -84.9558 262° West 435 501 32,000  Level Chicago Center
Tue 07:00:42 PM 42.8281 -85.1167 262° West 431 496 32,000  Level Chicago Center
Tue 07:01:44 PM 42.8106 -85.2775 262° West 429 494 32,000 -968 Level Chicago Center
Tue 07:02:46 PM 42.7931 -85.4367 262° West 427 491 30,000 -1,935 Descending Chicago Center
Tue 07:03:48 PM 42.7697 -85.5914 258° West 417 480 28,000 -1,935 Descending Chicago Center
Tue 07:04:50 PM 42.7425 -85.7411 256° West 408 470 26,000 -1,935 Descending Chicago Center
Tue 07:05:52 PM 42.7167 -85.8869 256° West 399 459 24,000 -1,839 Descending Chicago Center
Tue 07:06:54 PM 42.6883 -86.0397 256° West 407 468 22,200 -1,935 Descending Chicago Center
Tue 07:07:56 PM 42.6536 -86.2297 256° West 426 490 20,000 -1,500 Descending Chicago Center
Tue 07:08:58 PM 42.6258 -86.3731 255° West 395 455 19,100 -1,306 Descending Chicago Center
Tue 07:10:00 PM 42.5986 -86.5169 256° West 391 450 17,300 -1,742 Descending Chicago Center
Tue 07:11:02 PM 42.5731 -86.6561 256° West 382 440 15,500 -1,742 Descending Chicago Center
Tue 07:12:04 PM 42.5458 -86.7883 254° West 368 423 13,700 -1,742 Descending Chicago Center
Tue 07:13:06 PM 42.5125 -86.9108 250° West 356 410 11,900 -1,597 Descending Chicago Center
Tue 07:14:08 PM 42.4728 -87.0453 248° West 323 372 10,400 -1,258 Descending Chicago Center
Tue 07:15:10 PM 42.4486 -87.1353 250° West 261 300 9,300 -677 Descending Chicago Center
Tue 07:16:12 PM 42.4247 -87.2219 250° West 249 287 9,000 -145 Descending Chicago Center
Tue 07:17:14 PM 42.3994 -87.3119 249° West 257 296 9,000  Level Chicago Center
Tue 07:18:16 PM 42.3728 -87.4011 248° West 255 293 9,000 -581 Level Chicago Center
Tue 07:19:18 PM 42.3519 -87.4719 248° West 214 246 7,800 -968 Descending Chicago Center
Tue 07:20:20 PM 42.3108 -87.5467 233° Southwest 213 245 7,000 -387 Descending Chicago Center
Tue 07:21:22 PM 42.2669 -87.5969 220° Southwest 212 244 7,000 -290 Level Chicago Center
Tue 07:22:24 PM 42.2225 -87.6444 218° Southwest 208 239 6,400 -871 Descending Chicago Center
Tue 07:23:26 PM 42.1792 -87.6950 221° Southwest 207 238 5,200 -1,113 Descending Chicago Center
Tue 07:24:28 PM 42.1408 -87.7375 219° Southwest 187 215 4,100 -968 Descending Chicago Center
Tue 07:25:30 PM 42.0992 -87.7881 222° Southwest 174 200 3,200 -893 Descending Chicago Center
Tue 07:26:29 PM 42.0667 -87.8167 213° Southwest 166 191 2,300 -915 Descending Chicago TRACON

Login

Don't have an account? Register now (free) for customized features, flight alerts, and more!